sensor_id;sensor_type;location;lat;lon;timestamp;P1;durP1;ratioP1;P2;durP2;ratioP2
5813;SDS011;2933;52.302;8.134;2024-01-25T00:02:58;17.53;;;2.83;;
5813;SDS011;2933;52.302;8.134;2024-01-25T00:08:01;11.70;;;2.80;;
5813;SDS011;2933;52.302;8.134;2024-01-25T00:13:03;13.40;;;2.20;;
5813;SDS011;2933;52.302;8.134;2024-01-25T00:18:05;14.40;;;2.50;;
5813;SDS011;2933;52.302;8.134;2024-01-25T00:23:08;22.20;;;3.40;;
5813;SDS011;2933;52.302;8.134;2024-01-25T00:28:09;19.37;;;3.53;;
5813;SDS011;2933;52.302;8.134;2024-01-25T00:33:13;21.67;;;2.87;;
5813;SDS011;2933;52.302;8.134;2024-01-25T00:38:16;21.30;;;3.07;;
5813;SDS011;2933;52.302;8.134;2024-01-25T00:43:18;27.93;;;3.30;;
5813;SDS011;2933;52.302;8.134;2024-01-25T00:48:20;23.63;;;3.30;;
5813;SDS011;2933;52.302;8.134;2024-01-25T00:53:24;11.40;;;3.03;;
5813;SDS011;2933;52.302;8.134;2024-01-25T00:58:26;17.23;;;2.60;;
5813;SDS011;2933;52.302;8.134;2024-01-25T01:03:28;15.07;;;3.07;;
5813;SDS011;2933;52.302;8.134;2024-01-25T01:08:32;11.67;;;3.50;;
5813;SDS011;2933;52.302;8.134;2024-01-25T01:13:34;16.63;;;2.87;;
5813;SDS011;2933;52.302;8.134;2024-01-25T01:18:35;14.73;;;2.47;;
5813;SDS011;2933;52.302;8.134;2024-01-25T01:23:39;9.57;;;3.00;;
5813;SDS011;2933;52.302;8.134;2024-01-25T01:28:41;15.63;;;2.50;;
5813;SDS011;2933;52.302;8.134;2024-01-25T01:33:43;13.10;;;2.60;;
5813;SDS011;2933;52.302;8.134;2024-01-25T01:38:46;21.63;;;2.43;;
5813;SDS011;2933;52.302;8.134;2024-01-25T01:43:51;28.67;;;3.73;;
5813;SDS011;2933;52.302;8.134;2024-01-25T01:48:53;12.47;;;3.00;;
5813;SDS011;2933;52.302;8.134;2024-01-25T01:53:56;15.47;;;2.70;;
5813;SDS011;2933;52.302;8.134;2024-01-25T01:58:59;13.83;;;2.40;;
5813;SDS011;2933;52.302;8.134;2024-01-25T02:04:01;12.67;;;2.53;;
5813;SDS011;2933;52.302;8.134;2024-01-25T02:09:06;18.97;;;2.10;;
5813;SDS011;2933;52.302;8.134;2024-01-25T02:14:08;20.17;;;3.03;;
5813;SDS011;2933;52.302;8.134;2024-01-25T02:19:11;8.00;;;2.43;;
5813;SDS011;2933;52.302;8.134;2024-01-25T02:24:14;11.93;;;2.23;;
5813;SDS011;2933;52.302;8.134;2024-01-25T02:29:16;9.80;;;2.07;;
5813;SDS011;2933;52.302;8.134;2024-01-25T02:34:18;11.30;;;1.90;;
5813;SDS011;2933;52.302;8.134;2024-01-25T02:39:21;9.37;;;2.17;;
5813;SDS011;2933;52.302;8.134;2024-01-25T02:44:22;10.80;;;1.47;;
5813;SDS011;2933;52.302;8.134;2024-01-25T02:49:24;18.57;;;3.43;;
5813;SDS011;2933;52.302;8.134;2024-01-25T02:54:27;33.10;;;3.40;;
5813;SDS011;2933;52.302;8.134;2024-01-25T02:59:29;17.37;;;3.10;;
5813;SDS011;2933;52.302;8.134;2024-01-25T03:04:30;16.03;;;2.23;;
5813;SDS011;2933;52.302;8.134;2024-01-25T03:09:33;9.47;;;2.77;;
5813;SDS011;2933;52.302;8.134;2024-01-25T03:14:35;13.63;;;2.13;;
5813;SDS011;2933;52.302;8.134;2024-01-25T03:19:37;10.93;;;2.33;;
5813;SDS011;2933;52.302;8.134;2024-01-25T03:24:40;7.60;;;1.93;;
5813;SDS011;2933;52.302;8.134;2024-01-25T03:29:41;16.67;;;2.50;;
5813;SDS011;2933;52.302;8.134;2024-01-25T03:34:43;22.93;;;2.97;;
5813;SDS011;2933;52.302;8.134;2024-01-25T03:39:46;14.43;;;2.60;;
5813;SDS011;2933;52.302;8.134;2024-01-25T03:44:48;13.73;;;2.10;;
5813;SDS011;2933;52.302;8.134;2024-01-25T03:49:49;18.73;;;2.50;;
5813;SDS011;2933;52.302;8.134;2024-01-25T03:54:52;17.83;;;2.90;;
5813;SDS011;2933;52.302;8.134;2024-01-25T03:59:54;12.73;;;2.23;;
5813;SDS011;2933;52.302;8.134;2024-01-25T04:04:55;14.37;;;2.70;;
5813;SDS011;2933;52.302;8.134;2024-01-25T04:09:58;12.43;;;2.80;;
5813;SDS011;2933;52.302;8.134;2024-01-25T04:15:00;15.47;;;3.00;;
5813;SDS011;2933;52.302;8.134;2024-01-25T04:20:02;20.33;;;2.43;;
5813;SDS011;2933;52.302;8.134;2024-01-25T04:25:06;25.20;;;3.37;;
5813;SDS011;2933;52.302;8.134;2024-01-25T04:30:08;31.63;;;3.00;;
5813;SDS011;2933;52.302;8.134;2024-01-25T04:35:10;24.10;;;2.90;;
5813;SDS011;2933;52.302;8.134;2024-01-25T04:40:14;11.40;;;3.03;;
5813;SDS011;2933;52.302;8.134;2024-01-25T04:45:15;9.30;;;2.83;;
5813;SDS011;2933;52.302;8.134;2024-01-25T04:50:17;14.60;;;3.07;;
5813;SDS011;2933;52.302;8.134;2024-01-25T04:55:21;18.43;;;3.77;;
5813;SDS011;2933;52.302;8.134;2024-01-25T05:00:22;14.83;;;2.40;;
5813;SDS011;2933;52.302;8.134;2024-01-25T05:05:24;24.37;;;2.73;;
5813;SDS011;2933;52.302;8.134;2024-01-25T05:10:27;21.67;;;2.90;;
5813;SDS011;2933;52.302;8.134;2024-01-25T05:15:29;15.40;;;2.10;;
5813;SDS011;2933;52.302;8.134;2024-01-25T05:20:30;14.20;;;3.20;;
5813;SDS011;2933;52.302;8.134;2024-01-25T05:25:35;19.53;;;2.83;;
5813;SDS011;2933;52.302;8.134;2024-01-25T05:30:37;30.87;;;2.87;;
5813;SDS011;2933;52.302;8.134;2024-01-25T05:35:39;14.43;;;2.93;;
5813;SDS011;2933;52.302;8.134;2024-01-25T05:40:42;34.60;;;3.37;;
5813;SDS011;2933;52.302;8.134;2024-01-25T05:45:44;14.37;;;2.83;;
5813;SDS011;2933;52.302;8.134;2024-01-25T05:50:45;10.63;;;2.40;;
5813;SDS011;2933;52.302;8.134;2024-01-25T05:55:48;30.13;;;3.80;;
5813;SDS011;2933;52.302;8.134;2024-01-25T06:00:50;25.43;;;3.27;;
5813;SDS011;2933;52.302;8.134;2024-01-25T06:05:52;14.50;;;2.40;;
5813;SDS011;2933;52.302;8.134;2024-01-25T06:10:55;13.83;;;2.40;;
5813;SDS011;2933;52.302;8.134;2024-01-25T06:15:56;17.07;;;3.23;;
5813;SDS011;2933;52.302;8.134;2024-01-25T06:20:58;15.60;;;3.10;;
5813;SDS011;2933;52.302;8.134;2024-01-25T06:26:01;26.40;;;3.57;;
5813;SDS011;2933;52.302;8.134;2024-01-25T06:31:03;23.27;;;3.20;;
5813;SDS011;2933;52.302;8.134;2024-01-25T06:36:05;18.60;;;2.23;;
5813;SDS011;2933;52.302;8.134;2024-01-25T06:41:08;19.43;;;3.37;;
5813;SDS011;2933;52.302;8.134;2024-01-25T06:46:10;14.33;;;2.83;;
5813;SDS011;2933;52.302;8.134;2024-01-25T06:51:12;13.73;;;2.53;;
5813;SDS011;2933;52.302;8.134;2024-01-25T06:56:15;27.67;;;3.60;;
5813;SDS011;2933;52.302;8.134;2024-01-25T07:01:20;16.03;;;3.17;;
5813;SDS011;2933;52.302;8.134;2024-01-25T07:06:22;14.73;;;4.37;;
5813;SDS011;2933;52.302;8.134;2024-01-25T07:11:25;24.53;;;3.73;;
5813;SDS011;2933;52.302;8.134;2024-01-25T07:16:26;25.53;;;4.27;;
5813;SDS011;2933;52.302;8.134;2024-01-25T07:21:30;20.27;;;4.03;;
5813;SDS011;2933;52.302;8.134;2024-01-25T07:26:33;14.00;;;3.53;;
5813;SDS011;2933;52.302;8.134;2024-01-25T07:31:36;16.20;;;5.10;;
5813;SDS011;2933;52.302;8.134;2024-01-25T07:36:38;25.47;;;4.00;;
5813;SDS011;2933;52.302;8.134;2024-01-25T07:41:41;29.93;;;5.60;;
5813;SDS011;2933;52.302;8.134;2024-01-25T07:46:42;24.90;;;5.83;;
5813;SDS011;2933;52.302;8.134;2024-01-25T07:51:44;7.37;;;3.60;;
5813;SDS011;2933;52.302;8.134;2024-01-25T07:56:48;20.33;;;5.53;;
5813;SDS011;2933;52.302;8.134;2024-01-25T08:01:49;24.90;;;4.03;;
5813;SDS011;2933;52.302;8.134;2024-01-25T08:06:51;16.93;;;4.10;;
5813;SDS011;2933;52.302;8.134;2024-01-25T08:11:54;13.10;;;3.57;;
5813;SDS011;2933;52.302;8.134;2024-01-25T08:16:56;18.40;;;3.67;;
5813;SDS011;2933;52.302;8.134;2024-01-25T08:21:58;16.37;;;3.60;;
5813;SDS011;2933;52.302;8.134;2024-01-25T08:27:01;21.17;;;4.00;;
5813;SDS011;2933;52.302;8.134;2024-01-25T08:32:02;23.23;;;4.80;;
5813;SDS011;2933;52.302;8.134;2024-01-25T08:37:05;16.60;;;3.83;;
5813;SDS011;2933;52.302;8.134;2024-01-25T08:42:08;22.03;;;3.83;;
5813;SDS011;2933;52.302;8.134;2024-01-25T08:47:10;28.27;;;4.00;;
5813;SDS011;2933;52.302;8.134;2024-01-25T08:52:12;23.90;;;4.03;;
5813;SDS011;2933;52.302;8.134;2024-01-25T08:57:16;14.57;;;4.23;;
5813;SDS011;2933;52.302;8.134;2024-01-25T09:02:18;21.40;;;4.57;;
5813;SDS011;2933;52.302;8.134;2024-01-25T09:07:22;28.17;;;4.83;;
5813;SDS011;2933;52.302;8.134;2024-01-25T09:12:25;17.77;;;4.80;;
5813;SDS011;2933;52.302;8.134;2024-01-25T09:17:27;28.53;;;6.47;;
5813;SDS011;2933;52.302;8.134;2024-01-25T09:22:28;23.87;;;4.93;;
5813;SDS011;2933;52.302;8.134;2024-01-25T09:27:31;23.53;;;5.30;;
5813;SDS011;2933;52.302;8.134;2024-01-25T09:32:33;22.53;;;4.77;;
5813;SDS011;2933;52.302;8.134;2024-01-25T09:37:35;24.90;;;4.80;;
5813;SDS011;2933;52.302;8.134;2024-01-25T09:42:38;23.77;;;5.80;;
5813;SDS011;2933;52.302;8.134;2024-01-25T09:47:39;32.80;;;5.37;;
5813;SDS011;2933;52.302;8.134;2024-01-25T09:52:41;17.87;;;6.07;;
5813;SDS011;2933;52.302;8.134;2024-01-25T09:57:46;22.20;;;4.40;;
5813;SDS011;2933;52.302;8.134;2024-01-25T10:02:54;21.53;;;4.50;;
5813;SDS011;2933;52.302;8.134;2024-01-25T10:07:56;28.73;;;5.53;;
5813;SDS011;2933;52.302;8.134;2024-01-25T10:13:02;27.30;;;6.20;;
5813;SDS011;2933;52.302;8.134;2024-01-25T10:18:05;27.80;;;4.53;;
5813;SDS011;2933;52.302;8.134;2024-01-25T10:23:13;19.57;;;4.70;;
5813;SDS011;2933;52.302;8.134;2024-01-25T10:28:16;29.43;;;6.43;;
5813;SDS011;2933;52.302;8.134;2024-01-25T10:33:18;18.50;;;4.90;;
5813;SDS011;2933;52.302;8.134;2024-01-25T10:38:20;26.60;;;4.77;;
5813;SDS011;2933;52.302;8.134;2024-01-25T10:43:24;10.67;;;4.50;;
5813;SDS011;2933;52.302;8.134;2024-01-25T10:48:25;23.43;;;4.97;;
5813;SDS011;2933;52.302;8.134;2024-01-25T10:53:28;25.07;;;4.30;;
5813;SDS011;2933;52.302;8.134;2024-01-25T10:58:33;27.80;;;5.10;;
5813;SDS011;2933;52.302;8.134;2024-01-25T11:03:36;18.00;;;3.90;;
5813;SDS011;2933;52.302;8.134;2024-01-25T11:08:38;40.07;;;4.40;;
5813;SDS011;2933;52.302;8.134;2024-01-25T11:13:41;24.90;;;4.70;;
5813;SDS011;2933;52.302;8.134;2024-01-25T11:18:47;25.27;;;4.50;;
5813;SDS011;2933;52.302;8.134;2024-01-25T11:23:58;17.17;;;4.10;;
5813;SDS011;2933;52.302;8.134;2024-01-25T11:29:03;16.50;;;3.80;;
5813;SDS011;2933;52.302;8.134;2024-01-25T11:34:04;26.10;;;4.07;;
5813;SDS011;2933;52.302;8.134;2024-01-25T11:39:06;23.07;;;3.50;;
5813;SDS011;2933;52.302;8.134;2024-01-25T11:44:11;20.70;;;3.50;;
5813;SDS011;2933;52.302;8.134;2024-01-25T11:49:13;26.93;;;3.47;;
5813;SDS011;2933;52.302;8.134;2024-01-25T11:54:16;35.70;;;3.83;;
5813;SDS011;2933;52.302;8.134;2024-01-25T11:59:18;21.33;;;3.30;;
5813;SDS011;2933;52.302;8.134;2024-01-25T12:04:20;23.03;;;3.77;;
5813;SDS011;2933;52.302;8.134;2024-01-25T12:09:22;19.87;;;3.90;;
5813;SDS011;2933;52.302;8.134;2024-01-25T12:14:25;20.70;;;3.73;;
5813;SDS011;2933;52.302;8.134;2024-01-25T12:19:27;21.40;;;4.13;;
5813;SDS011;2933;52.302;8.134;2024-01-25T12:24:30;15.87;;;2.83;;
5813;SDS011;2933;52.302;8.134;2024-01-25T12:29:33;28.80;;;4.83;;
5813;SDS011;2933;52.302;8.134;2024-01-25T12:34:35;26.53;;;3.43;;
5813;SDS011;2933;52.302;8.134;2024-01-25T12:39:39;16.13;;;2.90;;
5813;SDS011;2933;52.302;8.134;2024-01-25T12:44:42;17.10;;;3.10;;
5813;SDS011;2933;52.302;8.134;2024-01-25T12:49:44;6.10;;;2.10;;
5813;SDS011;2933;52.302;8.134;2024-01-25T12:54:45;15.37;;;2.13;;
5813;SDS011;2933;52.302;8.134;2024-01-25T12:59:48;17.53;;;2.80;;
5813;SDS011;2933;52.302;8.134;2024-01-25T13:04:50;11.73;;;2.40;;
5813;SDS011;2933;52.302;8.134;2024-01-25T13:09:51;15.83;;;2.80;;
5813;SDS011;2933;52.302;8.134;2024-01-25T13:14:54;21.93;;;3.40;;
5813;SDS011;2933;52.302;8.134;2024-01-25T13:19:57;16.30;;;3.20;;
5813;SDS011;2933;52.302;8.134;2024-01-25T13:24:58;17.03;;;3.20;;
5813;SDS011;2933;52.302;8.134;2024-01-25T13:30:02;20.60;;;3.47;;
5813;SDS011;2933;52.302;8.134;2024-01-25T13:35:05;21.97;;;3.23;;
5813;SDS011;2933;52.302;8.134;2024-01-25T13:40:07;22.43;;;4.07;;
5813;SDS011;2933;52.302;8.134;2024-01-25T13:45:11;22.03;;;3.40;;
5813;SDS011;2933;52.302;8.134;2024-01-25T13:50:12;11.53;;;2.67;;
5813;SDS011;2933;52.302;8.134;2024-01-25T13:55:14;17.30;;;3.53;;
5813;SDS011;2933;52.302;8.134;2024-01-25T14:00:17;20.10;;;3.57;;
5813;SDS011;2933;52.302;8.134;2024-01-25T14:05:20;15.53;;;3.57;;
5813;SDS011;2933;52.302;8.134;2024-01-25T14:10:22;13.27;;;3.60;;
5813;SDS011;2933;52.302;8.134;2024-01-25T14:15:25;18.07;;;3.03;;
5813;SDS011;2933;52.302;8.134;2024-01-25T14:20:27;13.00;;;2.67;;
5813;SDS011;2933;52.302;8.134;2024-01-25T14:25:28;26.27;;;4.33;;
5813;SDS011;2933;52.302;8.134;2024-01-25T14:30:31;12.80;;;3.13;;
5813;SDS011;2933;52.302;8.134;2024-01-25T14:35:33;14.47;;;3.00;;
5813;SDS011;2933;52.302;8.134;2024-01-25T14:40:34;29.80;;;3.40;;
5813;SDS011;2933;52.302;8.134;2024-01-25T14:45:37;19.83;;;3.57;;
5813;SDS011;2933;52.302;8.134;2024-01-25T14:50:39;19.60;;;3.03;;
5813;SDS011;2933;52.302;8.134;2024-01-25T14:55:40;12.13;;;3.37;;
5813;SDS011;2933;52.302;8.134;2024-01-25T15:00:43;33.07;;;4.00;;
5813;SDS011;2933;52.302;8.134;2024-01-25T15:05:45;20.13;;;3.60;;
5813;SDS011;2933;52.302;8.134;2024-01-25T15:10:47;19.17;;;4.00;;
5813;SDS011;2933;52.302;8.134;2024-01-25T15:15:50;13.57;;;3.50;;
5813;SDS011;2933;52.302;8.134;2024-01-25T15:20:52;10.33;;;3.47;;
5813;SDS011;2933;52.302;8.134;2024-01-25T15:25:54;18.07;;;3.87;;
5813;SDS011;2933;52.302;8.134;2024-01-25T15:30:57;14.07;;;3.77;;
5813;SDS011;2933;52.302;8.134;2024-01-25T15:35:58;28.33;;;4.40;;
5813;SDS011;2933;52.302;8.134;2024-01-25T15:41:00;24.93;;;4.60;;
5813;SDS011;2933;52.302;8.134;2024-01-25T15:46:03;33.93;;;7.60;;
5813;SDS011;2933;52.302;8.134;2024-01-25T15:51:05;31.20;;;6.40;;
5813;SDS011;2933;52.302;8.134;2024-01-25T15:56:07;21.27;;;5.03;;
5813;SDS011;2933;52.302;8.134;2024-01-25T16:01:10;39.00;;;6.57;;
5813;SDS011;2933;52.302;8.134;2024-01-25T16:06:11;15.43;;;4.87;;
5813;SDS011;2933;52.302;8.134;2024-01-25T16:11:13;11.40;;;4.00;;
5813;SDS011;2933;52.302;8.134;2024-01-25T16:16:16;27.17;;;4.63;;
5813;SDS011;2933;52.302;8.134;2024-01-25T16:21:18;25.83;;;5.10;;
5813;SDS011;2933;52.302;8.134;2024-01-25T16:26:20;12.63;;;3.47;;
5813;SDS011;2933;52.302;8.134;2024-01-25T16:31:23;14.73;;;4.07;;
5813;SDS011;2933;52.302;8.134;2024-01-25T16:36:24;21.80;;;4.00;;
5813;SDS011;2933;52.302;8.134;2024-01-25T16:41:26;17.07;;;4.17;;
5813;SDS011;2933;52.302;8.134;2024-01-25T16:46:29;22.93;;;4.70;;
5813;SDS011;2933;52.302;8.134;2024-01-25T16:51:31;30.23;;;4.87;;
5813;SDS011;2933;52.302;8.134;2024-01-25T16:56:33;6.93;;;3.30;;
5813;SDS011;2933;52.302;8.134;2024-01-25T17:01:35;15.50;;;4.47;;
5813;SDS011;2933;52.302;8.134;2024-01-25T17:06:37;17.80;;;3.80;;
5813;SDS011;2933;52.302;8.134;2024-01-25T17:11:41;7.53;;;3.27;;
5813;SDS011;2933;52.302;8.134;2024-01-25T17:16:45;35.23;;;4.63;;
5813;SDS011;2933;52.302;8.134;2024-01-25T17:21:46;19.77;;;4.13;;
5813;SDS011;2933;52.302;8.134;2024-01-25T17:26:48;22.60;;;4.73;;
5813;SDS011;2933;52.302;8.134;2024-01-25T17:31:51;18.00;;;4.47;;
5813;SDS011;2933;52.302;8.134;2024-01-25T17:36:53;22.13;;;5.10;;
5813;SDS011;2933;52.302;8.134;2024-01-25T17:41:54;38.40;;;7.83;;
5813;SDS011;2933;52.302;8.134;2024-01-25T17:46:57;46.60;;;7.60;;
5813;SDS011;2933;52.302;8.134;2024-01-25T17:51:59;19.93;;;7.30;;
5813;SDS011;2933;52.302;8.134;2024-01-25T17:57:00;21.00;;;7.30;;
5813;SDS011;2933;52.302;8.134;2024-01-25T18:02:03;35.83;;;8.13;;
5813;SDS011;2933;52.302;8.134;2024-01-25T18:07:06;32.27;;;6.70;;
5813;SDS011;2933;52.302;8.134;2024-01-25T18:12:08;21.33;;;6.43;;
5813;SDS011;2933;52.302;8.134;2024-01-25T18:17:11;25.17;;;6.40;;
5813;SDS011;2933;52.302;8.134;2024-01-25T18:22:13;32.03;;;6.97;;
5813;SDS011;2933;52.302;8.134;2024-01-25T18:27:15;32.60;;;7.07;;
5813;SDS011;2933;52.302;8.134;2024-01-25T18:32:18;36.57;;;6.30;;
5813;SDS011;2933;52.302;8.134;2024-01-25T18:37:21;26.10;;;5.57;;
5813;SDS011;2933;52.302;8.134;2024-01-25T18:42:23;22.70;;;4.97;;
5813;SDS011;2933;52.302;8.134;2024-01-25T18:47:26;29.33;;;5.20;;
5813;SDS011;2933;52.302;8.134;2024-01-25T18:52:27;26.70;;;5.80;;
5813;SDS011;2933;52.302;8.134;2024-01-25T18:57:29;20.93;;;4.73;;
5813;SDS011;2933;52.302;8.134;2024-01-25T19:02:33;25.60;;;7.03;;
5813;SDS011;2933;52.302;8.134;2024-01-25T19:07:37;15.33;;;5.40;;
5813;SDS011;2933;52.302;8.134;2024-01-25T19:12:39;16.50;;;5.40;;
5813;SDS011;2933;52.302;8.134;2024-01-25T19:17:42;17.10;;;5.37;;
5813;SDS011;2933;52.302;8.134;2024-01-25T19:22:45;25.60;;;6.10;;
5813;SDS011;2933;52.302;8.134;2024-01-25T19:27:47;17.17;;;4.97;;
5813;SDS011;2933;52.302;8.134;2024-01-25T19:32:50;21.33;;;4.93;;
5813;SDS011;2933;52.302;8.134;2024-01-25T19:37:51;20.33;;;5.90;;
5813;SDS011;2933;52.302;8.134;2024-01-25T19:42:53;24.57;;;5.27;;
5813;SDS011;2933;52.302;8.134;2024-01-25T19:47:56;22.37;;;4.97;;
5813;SDS011;2933;52.302;8.134;2024-01-25T19:52:57;21.23;;;6.07;;
5813;SDS011;2933;52.302;8.134;2024-01-25T19:57:59;19.53;;;5.07;;
5813;SDS011;2933;52.302;8.134;2024-01-25T20:03:03;13.30;;;4.93;;
5813;SDS011;2933;52.302;8.134;2024-01-25T20:08:06;33.77;;;5.83;;
5813;SDS011;2933;52.302;8.134;2024-01-25T20:13:08;25.77;;;5.80;;
5813;SDS011;2933;52.302;8.134;2024-01-25T20:18:11;26.03;;;5.67;;
5813;SDS011;2933;52.302;8.134;2024-01-25T20:23:13;23.63;;;6.50;;
5813;SDS011;2933;52.302;8.134;2024-01-25T20:28:14;16.20;;;5.20;;
5813;SDS011;2933;52.302;8.134;2024-01-25T20:33:17;11.63;;;4.30;;
5813;SDS011;2933;52.302;8.134;2024-01-25T20:38:19;17.67;;;5.60;;
5813;SDS011;2933;52.302;8.134;2024-01-25T20:43:20;16.33;;;5.47;;
5813;SDS011;2933;52.302;8.134;2024-01-25T20:48:23;21.97;;;5.77;;
5813;SDS011;2933;52.302;8.134;2024-01-25T20:53:25;16.33;;;6.20;;
5813;SDS011;2933;52.302;8.134;2024-01-25T20:58:26;17.33;;;6.40;;
5813;SDS011;2933;52.302;8.134;2024-01-25T21:03:30;32.23;;;6.90;;
5813;SDS011;2933;52.302;8.134;2024-01-25T21:08:32;23.07;;;6.70;;
5813;SDS011;2933;52.302;8.134;2024-01-25T21:13:34;22.27;;;7.60;;
5813;SDS011;2933;52.302;8.134;2024-01-25T21:18:37;15.13;;;6.33;;
5813;SDS011;2933;52.302;8.134;2024-01-25T21:23:39;21.73;;;6.93;;
5813;SDS011;2933;52.302;8.134;2024-01-25T21:28:41;15.43;;;6.93;;
5813;SDS011;2933;52.302;8.134;2024-01-25T21:33:45;25.97;;;5.90;;
5813;SDS011;2933;52.302;8.134;2024-01-25T21:38:47;20.10;;;6.07;;
5813;SDS011;2933;52.302;8.134;2024-01-25T21:43:49;17.13;;;5.60;;
5813;SDS011;2933;52.302;8.134;2024-01-25T21:48:52;19.03;;;5.93;;
5813;SDS011;2933;52.302;8.134;2024-01-25T21:53:54;19.93;;;6.53;;
5813;SDS011;2933;52.302;8.134;2024-01-25T21:58:55;12.23;;;5.70;;
5813;SDS011;2933;52.302;8.134;2024-01-25T22:03:58;15.90;;;6.10;;
5813;SDS011;2933;52.302;8.134;2024-01-25T22:09:00;16.57;;;6.40;;
5813;SDS011;2933;52.302;8.134;2024-01-25T22:14:01;26.13;;;8.10;;
5813;SDS011;2933;52.302;8.134;2024-01-25T22:19:04;24.63;;;7.53;;
5813;SDS011;2933;52.302;8.134;2024-01-25T22:24:06;16.70;;;6.80;;
5813;SDS011;2933;52.302;8.134;2024-01-25T22:29:08;19.53;;;7.60;;
5813;SDS011;2933;52.302;8.134;2024-01-25T22:34:11;29.73;;;8.73;;
5813;SDS011;2933;52.302;8.134;2024-01-25T22:39:13;26.43;;;9.03;;
5813;SDS011;2933;52.302;8.134;2024-01-25T22:44:14;19.10;;;8.53;;
5813;SDS011;2933;52.302;8.134;2024-01-25T22:49:17;33.63;;;8.83;;
5813;SDS011;2933;52.302;8.134;2024-01-25T22:54:20;33.17;;;9.37;;
5813;SDS011;2933;52.302;8.134;2024-01-25T22:59:21;25.53;;;9.40;;
5813;SDS011;2933;52.302;8.134;2024-01-25T23:04:24;37.13;;;9.57;;
5813;SDS011;2933;52.302;8.134;2024-01-25T23:09:26;38.63;;;10.07;;
5813;SDS011;2933;52.302;8.134;2024-01-25T23:14:27;32.07;;;9.60;;
5813;SDS011;2933;52.302;8.134;2024-01-25T23:19:30;29.67;;;9.97;;
5813;SDS011;2933;52.302;8.134;2024-01-25T23:24:32;30.67;;;9.03;;
5813;SDS011;2933;52.302;8.134;2024-01-25T23:29:34;31.90;;;9.30;;
5813;SDS011;2933;52.302;8.134;2024-01-25T23:34:37;26.60;;;9.70;;
5813;SDS011;2933;52.302;8.134;2024-01-25T23:39:38;23.13;;;9.60;;
5813;SDS011;2933;52.302;8.134;2024-01-25T23:44:40;33.77;;;10.83;;
5813;SDS011;2933;52.302;8.134;2024-01-25T23:49:43;30.67;;;10.30;;
5813;SDS011;2933;52.302;8.134;2024-01-25T23:54:45;26.03;;;9.43;;
5813;SDS011;2933;52.302;8.134;2024-01-25T23:59:47;30.20;;;10.50;;
